createdAt,value
2023-08-02T00:02:04.176Z,95868.06
2023-08-02T00:04:30.858Z,95859.63
2023-08-02T00:06:57.470Z,95850.41
2023-08-02T00:09:24.085Z,95843.50
2023-08-02T00:11:50.694Z,95850.38
2023-08-02T00:14:17.308Z,95842.31
2023-08-02T00:16:44.216Z,95845.41
2023-08-02T00:19:11.096Z,95842.31
2023-08-02T00:21:37.700Z,95841.56
2023-08-02T00:24:04.305Z,95838.09
2023-08-02T00:26:30.932Z,95844.25
2023-08-02T00:28:57.536Z,95839.97
2023-08-02T00:31:24.220Z,95840.75
2023-08-02T00:33:50.887Z,95820.75
2023-08-02T00:36:17.526Z,95819.97
2023-08-02T00:38:44.129Z,95818.06
2023-08-02T00:41:10.743Z,95811.53
2023-08-02T00:43:37.336Z,95818.44
2023-08-02T00:46:04.130Z,95819.19
2023-08-02T00:48:31.107Z,95806.91
2023-08-02T00:50:57.871Z,95803.09
2023-08-02T00:53:24.502Z,95815.44
2023-08-02T00:55:51.090Z,95808.53
2023-08-02T00:58:17.709Z,95801.28
2023-08-02T01:00:44.312Z,95787.84
2023-08-02T01:03:11.555Z,95782.88
2023-08-02T01:05:38.312Z,95771.72
2023-08-02T01:08:04.969Z,95761.69
2023-08-02T01:10:31.569Z,95770.59
2023-08-02T01:12:58.170Z,95774.44
2023-08-02T01:15:24.788Z,95765.63
2023-08-02T01:17:51.434Z,95771.00
2023-08-02T01:20:18.049Z,95764.09
2023-08-02T01:22:44.687Z,95756.78
2023-08-02T01:25:11.302Z,95752.53
2023-08-02T01:27:37.914Z,95758.28
2023-08-02T01:30:04.512Z,95756.69
2023-08-02T01:32:31.143Z,95747.09
2023-08-02T01:34:57.824Z,95734.78
2023-08-02T01:37:24.436Z,95722.09
2023-08-02T01:39:51.079Z,95708.66
2023-08-02T01:42:17.750Z,95691.41
2023-08-02T01:44:44.463Z,95697.94
2023-08-02T01:47:11.088Z,95685.31
2023-08-02T01:49:37.711Z,95669.19
2023-08-02T01:52:04.371Z,95675.75
2023-08-02T01:54:31.002Z,95683.81
2023-08-02T01:56:57.614Z,95683.44
2023-08-02T01:59:24.346Z,95698.00
2023-08-02T02:01:50.984Z,95690.41
2023-08-02T02:04:17.590Z,95678.13
2023-08-02T02:06:44.463Z,95665.44
2023-08-02T02:09:11.389Z,95661.25
2023-08-02T02:11:37.985Z,95660.06
2023-08-02T02:14:04.611Z,95654.69
2023-08-02T02:16:31.225Z,95652.41
2023-08-02T02:18:57.874Z,95642.03
2023-08-02T02:21:24.493Z,95640.84
2023-08-02T02:23:51.117Z,95637.75
2023-08-02T02:26:17.732Z,95626.59
2023-08-02T02:28:44.327Z,95623.50
2023-08-02T02:31:10.931Z,95626.19
2023-08-02T02:33:37.558Z,95625.78
2023-08-02T02:36:04.163Z,95616.19
2023-08-02T02:38:30.767Z,95627.34
2023-08-02T02:40:57.379Z,95622.75
2023-08-02T02:43:23.980Z,95605.09
2023-08-02T02:45:50.600Z,95603.91
2023-08-02T02:48:17.209Z,95600.13
2023-08-02T02:50:43.824Z,95595.56
2023-08-02T02:53:10.422Z,95599.78
2023-08-02T02:55:37.047Z,95601.31
2023-08-02T02:58:03.661Z,95602.09
2023-08-02T03:00:30.257Z,95592.19
2023-08-02T03:02:56.928Z,95598.31
2023-08-02T03:05:23.559Z,95600.25
2023-08-02T03:07:50.169Z,95592.19
2023-08-02T03:10:16.779Z,95592.97
2023-08-02T03:12:43.365Z,95583.38
2023-08-02T03:15:09.979Z,95583.03
2023-08-02T03:17:36.573Z,95582.28
2023-08-02T03:20:03.177Z,95580.25
2023-08-02T03:22:29.779Z,95581.38
2023-08-02T03:24:56.408Z,95564.84
2023-08-02T03:27:23.012Z,95560.56
2023-08-02T03:29:49.634Z,95559.03
2023-08-02T03:32:16.246Z,95555.94
2023-08-02T03:34:42.870Z,95556.78
2023-08-02T03:37:09.498Z,95566.75
2023-08-02T03:39:36.100Z,95566.41
2023-08-02T03:42:02.686Z,95574.47
2023-08-02T03:44:29.295Z,95557.56
2023-08-02T03:46:55.901Z,95549.94
2023-08-02T03:49:22.498Z,95551.44
2023-08-02T03:51:49.118Z,95552.63
2023-08-02T03:54:15.712Z,95543.03
2023-08-02T03:56:42.652Z,95549.59
2023-08-02T03:59:09.468Z,95544.22
2023-08-02T04:01:36.093Z,95548.03
2023-08-02T04:04:02.761Z,95542.66
2023-08-02T04:06:29.419Z,95554.56
2023-08-02T04:08:56.071Z,95550.34
2023-08-02T04:11:22.661Z,95547.66
2023-08-02T04:13:49.278Z,95550.03
2023-08-02T04:16:15.933Z,95549.25
2023-08-02T04:18:42.553Z,95547.66
2023-08-02T04:21:09.155Z,95546.91
2023-08-02T04:23:35.757Z,95537.25
2023-08-02T04:26:02.383Z,95541.03
2023-08-02T04:28:29.001Z,95539.13
2023-08-02T04:30:55.626Z,95545.66
2023-08-02T04:33:22.296Z,95547.19
2023-08-02T04:35:48.950Z,95553.31
2023-08-02T04:38:15.556Z,95560.63
2023-08-02T04:40:42.178Z,95566.06
2023-08-02T04:43:08.760Z,95565.31
2023-08-02T04:45:35.383Z,95567.22
2023-08-02T04:48:02.030Z,95571.09
2023-08-02T04:50:28.742Z,95562.63
2023-08-02T04:52:55.348Z,95573.38
2023-08-02T04:55:21.932Z,95576.06
2023-08-02T04:57:48.588Z,95575.75
2023-08-02T05:00:15.224Z,95579.19
2023-08-02T05:02:41.914Z,95587.25
2023-08-02T05:05:08.542Z,95579.59
2023-08-02T05:07:35.536Z,95574.22
2023-08-02T05:10:02.997Z,95571.13
2023-08-02T05:12:29.617Z,95572.69
2023-08-02T05:14:56.212Z,95568.84
2023-08-02T05:17:22.832Z,95560.78
2023-08-02T05:19:49.469Z,95556.97
2023-08-02T05:22:16.074Z,95550.81
2023-08-02T05:24:42.681Z,95555.03
2023-08-02T05:27:09.273Z,95553.13
2023-08-02T05:29:35.886Z,95556.50
2023-08-02T05:32:02.562Z,95557.66
2023-08-02T05:34:29.183Z,95546.81
2023-08-02T05:36:55.772Z,95549.88
2023-08-02T05:39:22.377Z,95552.38
2023-08-02T05:41:48.995Z,95555.09
2023-08-02T05:44:15.613Z,95552.53
2023-08-02T05:46:42.225Z,95547.94
2023-08-02T05:49:08.832Z,95543.25
2023-08-02T05:51:35.429Z,95554.81
2023-08-02T05:54:02.017Z,95542.13
2023-08-02T05:56:28.671Z,95538.91
2023-08-02T05:58:55.279Z,95537.50
2023-08-02T06:01:21.934Z,95539.00
2023-08-02T06:03:48.657Z,95533.53
2023-08-02T06:06:15.343Z,95539.38
2023-08-02T06:08:41.974Z,95541.59
2023-08-02T06:11:08.586Z,95535.13
2023-08-02T06:13:35.195Z,95532.38
2023-08-02T06:16:01.815Z,95523.19
2023-08-02T06:18:28.499Z,95531.63
2023-08-02T06:20:55.096Z,95540.03
2023-08-02T06:23:21.698Z,95539.19
2023-08-02T06:25:48.296Z,95535.31
2023-08-02T06:28:14.902Z,95524.50
2023-08-02T06:30:41.534Z,95528.25
2023-08-02T06:33:08.186Z,95526.38
2023-08-02T06:35:34.982Z,95529.06
2023-08-02T06:38:01.689Z,95525.97
2023-08-02T06:40:28.333Z,95519.44
2023-08-02T06:42:54.966Z,95529.06
2023-08-02T06:45:21.588Z,95531.81
2023-08-02T06:47:48.239Z,95524.16
2023-08-02T06:50:14.872Z,95524.56
2023-08-02T06:52:41.479Z,95523.81
2023-08-02T06:55:08.085Z,95525.69
2023-08-02T06:57:34.694Z,95532.66
2023-08-02T07:00:01.315Z,95522.72
2023-08-02T07:02:27.981Z,95522.63
2023-08-02T07:04:54.709Z,95523.00
2023-08-02T07:07:21.397Z,95518.78
2023-08-02T07:09:47.992Z,95509.56
2023-08-02T07:12:14.642Z,95514.25
2023-08-02T07:14:41.257Z,95506.59
2023-08-02T07:17:07.850Z,95507.34
2023-08-02T07:19:34.449Z,95503.81
2023-08-02T07:22:01.043Z,95510.25
2023-08-02T07:24:27.667Z,95508.72
2023-08-02T07:26:54.281Z,95516.34
2023-08-02T07:29:20.931Z,95500.59
2023-08-02T07:31:47.624Z,95502.19
2023-08-02T07:34:14.243Z,95494.47
2023-08-02T07:36:40.841Z,95502.81
2023-08-02T07:39:07.496Z,95489.78
2023-08-02T07:41:34.132Z,95481.72
2023-08-02T07:44:00.754Z,95479.16
2023-08-02T07:46:27.428Z,95470.81
2023-08-02T07:48:54.092Z,95468.84
2023-08-02T07:51:20.742Z,95464.53
2023-08-02T07:53:47.404Z,95461.84
2023-08-02T07:56:14.039Z,95454.19
2023-08-02T07:58:40.663Z,95450.00
2023-08-02T08:01:07.267Z,95452.28
2023-08-02T08:03:33.875Z,95446.50
2023-08-02T08:06:00.513Z,95447.66
2023-08-02T08:08:27.142Z,95453.50
2023-08-02T08:10:53.753Z,95451.94
2023-08-02T08:13:20.392Z,95453.38
2023-08-02T08:15:46.971Z,95444.44
2023-08-02T08:18:13.600Z,95445.19
2023-08-02T08:20:40.224Z,95438.94
2023-08-02T08:23:06.837Z,95432.34
2023-08-02T08:25:33.439Z,95425.47
2023-08-02T08:28:00.049Z,95416.50
2023-08-02T08:30:26.669Z,95420.38
2023-08-02T08:32:53.305Z,95411.19
2023-08-02T08:35:19.936Z,95407.06
2023-08-02T08:37:46.574Z,95411.28
2023-08-02T08:40:18.992Z,95405.47
2023-08-02T08:42:45.609Z,95397.88
2023-08-02T08:45:12.513Z,95401.81
2023-08-02T08:47:39.179Z,95393.41
2023-08-02T08:50:05.874Z,95377.28
2023-08-02T08:52:32.486Z,95387.34
2023-08-02T08:54:59.100Z,95385.44
2023-08-02T08:57:25.755Z,95385.44
2023-08-02T08:59:52.381Z,95377.38
2023-08-02T09:02:19.000Z,95370.81
2023-08-02T09:04:45.618Z,95368.81
2023-08-02T09:07:12.238Z,95376.13
2023-08-02T09:09:38.837Z,95361.78
2023-08-02T09:12:05.445Z,95375.91
2023-08-02T09:14:32.057Z,95361.97
2023-08-02T09:16:58.656Z,95364.59
2023-08-02T09:19:25.552Z,95368.03
2023-08-02T09:21:52.158Z,95364.84
2023-08-02T09:24:18.780Z,95366.38
2023-08-02T09:26:45.429Z,95369.66
2023-08-02T09:29:12.027Z,95367.66
2023-08-02T09:31:38.723Z,95364.22
2023-08-02T09:34:05.432Z,95365.47
2023-08-02T09:36:32.116Z,95363.31
2023-08-02T09:38:58.716Z,95352.19
2023-08-02T09:43:54.871Z,95356.00
2023-08-02T09:46:21.523Z,95348.69
2023-08-02T09:48:48.133Z,95338.34
2023-08-02T09:51:14.736Z,95351.78
2023-08-02T09:53:41.330Z,95341.03
2023-08-02T09:56:07.935Z,95332.59
2023-08-02T09:58:34.571Z,95321.84
2023-08-02T10:01:01.185Z,95333.66
2023-08-02T10:03:28.172Z,95337.44
2023-08-02T10:05:54.881Z,95329.25
2023-08-02T10:08:21.495Z,95325.03
2023-08-02T10:10:48.100Z,95338.47
2023-08-02T10:13:14.720Z,95323.00
2023-08-02T10:15:41.414Z,95320.25
2023-08-02T10:18:08.075Z,95324.88
2023-08-02T10:20:34.731Z,95325.97
2023-08-02T10:23:01.328Z,95328.28
2023-08-02T10:25:27.956Z,95312.88
2023-08-02T10:27:54.582Z,95313.66
2023-08-02T10:30:21.192Z,95315.47
2023-08-02T10:32:47.855Z,95313.56
2023-08-02T10:35:14.503Z,95313.56
2023-08-02T10:37:41.114Z,95296.66
2023-08-02T10:40:07.726Z,95294.31
2023-08-02T10:42:34.310Z,95290.09
2023-08-02T10:45:00.921Z,95280.19
2023-08-02T10:47:27.510Z,95278.25
2023-08-02T10:49:54.124Z,95270.22
2023-08-02T10:52:20.730Z,95268.38
2023-08-02T10:54:47.329Z,95264.94
2023-08-02T10:57:13.946Z,95257.63
2023-08-02T10:59:40.536Z,95257.16
2023-08-02T11:02:07.129Z,95242.44
2023-08-02T11:04:33.850Z,95243.53
2023-08-02T11:07:00.516Z,95235.25
2023-08-02T11:09:27.170Z,95227.03
2023-08-02T11:11:53.785Z,95229.66
2023-08-02T11:14:20.405Z,95225.34
2023-08-02T11:19:16.662Z,95225.84
2023-08-02T11:21:43.373Z,95216.38
2023-08-02T11:24:09.960Z,95202.50
2023-08-02T11:29:06.080Z,95192.47
2023-08-02T11:31:32.685Z,95181.78
2023-08-02T11:33:59.292Z,95186.66
2023-08-02T11:36:25.902Z,95174.19
2023-08-02T11:38:52.570Z,95168.63
2023-08-02T11:41:19.191Z,95173.59
2023-08-02T11:43:45.849Z,95178.97
2023-08-02T11:46:12.570Z,95163.16
2023-08-02T11:48:39.217Z,95165.41
2023-08-02T11:51:05.833Z,95151.63
2023-08-02T11:53:32.505Z,95138.97
2023-08-02T11:55:59.212Z,95141.13
2023-08-02T11:58:25.880Z,95133.03
2023-08-02T12:00:52.485Z,95116.84
2023-08-02T12:03:19.096Z,95126.22
2023-08-02T12:05:45.834Z,95119.41
2023-08-02T12:08:12.532Z,95110.91
2023-08-02T12:10:39.139Z,95122.00
2023-08-02T12:13:05.736Z,95107.06
2023-08-02T12:15:32.320Z,95116.84
2023-08-02T12:17:58.943Z,95119.34
2023-08-02T12:20:25.546Z,95105.53
2023-08-02T12:22:52.144Z,95105.84
2023-08-02T12:25:18.757Z,95095.97
2023-08-02T12:27:45.357Z,95083.75
2023-08-02T12:30:12.022Z,95084.81
2023-08-02T12:32:38.670Z,95085.78
2023-08-02T12:35:11.961Z,95074.13
2023-08-02T12:37:39.574Z,95081.53
2023-08-02T12:40:06.262Z,95075.56
2023-08-02T12:42:34.253Z,95053.69
2023-08-02T12:45:15.216Z,95052.19
2023-08-02T12:47:44.253Z,95053.16
2023-08-02T12:50:10.950Z,95048.22
2023-08-02T12:52:37.605Z,95055.00
2023-08-02T12:55:04.213Z,95057.25
2023-08-02T12:57:30.819Z,95065.34
2023-08-02T12:59:57.414Z,95057.19
2023-08-02T13:02:24.004Z,95059.00
2023-08-02T13:04:50.597Z,95045.97
2023-08-02T13:07:18.638Z,95049.41
2023-08-02T13:09:45.526Z,95063.22
2023-08-02T13:12:13.990Z,95054.75
2023-08-02T13:14:42.618Z,95052.19
2023-08-02T13:17:09.232Z,95057.47
2023-08-02T13:19:35.844Z,95058.31
2023-08-02T13:22:02.484Z,95039.81
2023-08-02T13:24:29.109Z,95044.69
2023-08-02T13:26:55.707Z,95035.66
2023-08-02T13:29:23.315Z,95045.47
2023-08-02T13:31:50.168Z,95055.84
2023-08-02T13:34:16.808Z,95056.47
2023-08-02T13:36:44.235Z,95040.03
2023-08-02T13:39:11.194Z,95029.69
2023-08-02T13:41:40.580Z,95023.03
2023-08-02T13:44:07.186Z,95015.38
2023-08-02T13:46:33.817Z,95020.00
2023-08-02T13:49:00.428Z,95013.75
2023-08-02T13:51:27.069Z,95006.53
2023-08-02T13:53:54.645Z,95011.38
2023-08-02T13:56:21.405Z,95008.13
2023-08-02T13:58:48.062Z,95012.78
2023-08-02T14:01:14.690Z,94998.00
2023-08-02T14:03:41.324Z,95005.44
2023-08-02T14:06:07.997Z,95003.19
2023-08-02T14:08:34.681Z,94996.75
2023-08-02T14:11:01.277Z,94995.34
2023-08-02T14:13:27.874Z,94983.91
2023-08-02T14:15:54.545Z,94985.88
2023-08-02T14:18:21.182Z,94981.00
2023-08-02T14:20:47.849Z,94992.09
2023-08-02T14:23:14.551Z,94991.34
2023-08-02T14:25:41.177Z,94984.44
2023-08-02T14:28:07.796Z,94971.00
2023-08-02T14:30:34.404Z,94992.88
2023-08-02T14:33:01.038Z,94985.41
2023-08-02T14:35:27.679Z,94991.25
2023-08-02T14:37:54.287Z,94978.84
2023-08-02T14:40:20.885Z,94979.50
2023-08-02T14:42:47.525Z,94963.66
2023-08-02T14:45:14.157Z,94983.69
2023-08-02T14:47:40.791Z,94971.88
2023-08-02T14:50:07.420Z,94965.41
2023-08-02T14:52:34.021Z,94968.97
2023-08-02T14:55:00.656Z,94967.13
2023-08-02T14:57:27.263Z,94960.44
2023-08-02T14:59:53.851Z,94963.56
2023-08-02T15:02:20.486Z,94966.47
2023-08-02T15:04:47.168Z,94960.84
2023-08-02T15:07:13.820Z,94951.59
2023-08-02T15:09:40.440Z,94963.88
2023-08-02T15:12:07.058Z,94960.66
2023-08-02T15:14:33.674Z,94959.16
2023-08-02T15:17:00.385Z,94961.59
2023-08-02T15:19:27.137Z,94951.25
2023-08-02T15:21:53.740Z,94952.19
2023-08-02T15:24:20.354Z,94950.81
2023-08-02T15:26:46.952Z,94933.50
2023-08-02T15:29:13.555Z,94939.63
2023-08-02T15:31:40.178Z,94952.91
2023-08-02T15:34:08.278Z,94963.66
2023-08-02T15:36:36.025Z,94969.25
2023-08-02T15:39:02.626Z,94962.47
2023-08-02T15:41:29.236Z,94967.66
2023-08-02T15:43:55.834Z,94979.69
2023-08-02T15:46:22.570Z,94990.94
2023-08-02T15:48:49.220Z,94981.97
2023-08-02T15:51:15.826Z,94990.72
2023-08-02T15:53:42.414Z,94999.31
2023-08-02T15:56:09.001Z,95008.28
2023-08-02T15:58:35.661Z,95001.38
2023-08-02T16:01:02.346Z,95005.47
2023-08-02T16:03:28.977Z,94995.34
2023-08-02T16:05:55.585Z,95000.59
2023-08-02T16:08:22.195Z,95001.25
2023-08-02T16:10:48.784Z,95023.88
2023-08-02T16:13:15.386Z,95007.94
2023-08-02T16:15:41.988Z,95044.75
2023-08-02T16:18:08.640Z,95066.00
2023-08-02T16:20:35.300Z,95047.38
2023-08-02T16:23:01.895Z,95070.00
2023-08-02T16:25:28.493Z,95079.69
2023-08-02T16:27:55.119Z,95060.72
2023-08-02T16:30:21.735Z,95056.00
2023-08-02T16:32:48.435Z,95064.94
2023-08-02T16:35:15.063Z,95070.00
2023-08-02T16:37:41.660Z,95054.47
2023-08-02T16:40:08.285Z,95059.84
2023-08-02T16:42:34.945Z,95068.69
2023-08-02T16:45:01.556Z,95055.66
2023-08-02T16:47:28.209Z,95055.66
2023-08-02T16:49:54.846Z,95037.78
2023-08-02T16:52:24.037Z,95043.28
2023-08-02T16:54:50.835Z,95058.13
2023-08-02T16:57:17.446Z,95045.56
2023-08-02T16:59:44.051Z,95051.78
2023-08-02T17:02:10.719Z,95046.72
2023-08-02T17:04:37.386Z,95053.72
2023-08-02T17:07:04.019Z,95054.81
2023-08-02T17:09:30.660Z,95056.31
2023-08-02T17:11:57.278Z,95051.34
2023-08-02T17:14:23.896Z,95058.25
2023-08-02T17:16:50.504Z,95062.00
2023-08-02T17:19:17.126Z,95063.44
2023-08-02T17:21:46.523Z,95061.47
2023-08-02T17:24:14.471Z,95072.16
2023-08-02T17:26:41.075Z,95078.19
2023-08-02T17:29:07.706Z,95074.31
2023-08-02T17:31:34.317Z,95065.81
2023-08-02T17:34:01.004Z,95082.59
2023-08-02T17:36:27.660Z,95073.75
2023-08-02T17:38:54.260Z,95076.47
2023-08-02T17:41:20.851Z,95079.56
2023-08-02T17:43:47.459Z,95088.09
2023-08-02T17:46:14.084Z,95086.25
2023-08-02T17:48:42.862Z,95076.34
2023-08-02T17:51:09.555Z,95091.44
2023-08-02T17:53:36.153Z,95095.00
2023-08-02T17:56:02.746Z,95103.31
2023-08-02T17:58:29.339Z,95105.44
2023-08-02T18:00:55.971Z,95109.09
2023-08-02T18:03:22.577Z,95120.94
2023-08-02T18:05:49.198Z,95127.72
2023-08-02T18:08:15.889Z,95125.66
2023-08-02T18:10:42.540Z,95128.38
2023-08-02T18:13:09.146Z,95129.56
2023-08-02T18:15:35.744Z,95139.81
2023-08-02T18:18:02.482Z,95132.75
2023-08-02T18:20:29.158Z,95121.41
2023-08-02T18:22:55.938Z,95111.19
2023-08-02T18:25:23.157Z,95114.94
2023-08-02T18:27:49.753Z,95125.69
2023-08-02T18:30:16.363Z,95119.97
2023-08-02T18:32:43.060Z,95125.91
2023-08-02T18:35:09.680Z,95129.69
2023-08-02T18:37:36.317Z,95134.94
2023-08-02T18:40:02.924Z,95144.13
2023-08-02T18:42:29.518Z,95136.03
2023-08-02T18:44:56.121Z,95124.91
2023-08-02T18:47:22.746Z,95145.72
2023-08-02T18:49:49.395Z,95146.16
2023-08-02T18:52:16.003Z,95153.19
2023-08-02T18:54:42.595Z,95164.53
2023-08-02T18:57:09.219Z,95182.88
2023-08-02T18:59:35.850Z,95209.19
2023-08-02T19:02:02.464Z,95230.44
2023-08-02T19:04:29.128Z,95247.91
2023-08-02T19:06:55.735Z,95259.09
2023-08-02T19:09:22.328Z,95265.25
2023-08-02T19:11:48.936Z,95272.59
2023-08-02T19:14:15.518Z,95275.63
2023-08-02T19:16:42.142Z,95280.06
2023-08-02T19:19:08.793Z,95295.78
2023-08-02T19:21:35.412Z,95301.84
2023-08-02T19:24:02.004Z,95299.78
2023-08-02T19:26:28.616Z,95307.13
2023-08-02T19:28:55.245Z,95318.34
2023-08-02T19:31:21.940Z,95319.19
2023-08-02T19:33:48.621Z,95316.16
2023-08-02T19:36:15.215Z,95315.28
2023-08-02T19:38:41.810Z,95311.31
2023-08-02T19:41:08.416Z,95302.16
2023-08-02T19:43:35.007Z,95308.81
2023-08-02T19:46:01.619Z,95312.25
2023-08-02T19:48:28.211Z,95318.09
2023-08-02T19:50:54.797Z,95320.13
2023-08-02T19:53:21.412Z,95320.47
2023-08-02T19:55:48.006Z,95322.41
2023-08-02T19:58:14.624Z,95346.31
2023-08-02T20:00:41.261Z,95352.16
2023-08-02T20:03:07.903Z,95351.72
2023-08-02T20:05:34.517Z,95350.53
2023-08-02T20:08:01.114Z,95350.13
2023-08-02T20:10:27.732Z,95368.22
2023-08-02T20:12:54.327Z,95365.94
2023-08-02T20:15:20.921Z,95361.66
2023-08-02T20:17:47.670Z,95347.06
2023-08-02T20:20:14.357Z,95356.25
2023-08-02T20:22:42.364Z,95358.19
2023-08-02T20:25:10.287Z,95362.41
2023-08-02T20:27:36.876Z,95355.91
2023-08-02T20:30:03.519Z,95352.06
2023-08-02T20:32:30.187Z,95366.38
2023-08-02T20:34:56.836Z,95373.28
2023-08-02T20:37:23.464Z,95371.03
2023-08-02T20:39:50.081Z,95376.41
2023-08-02T20:42:16.686Z,95385.34
2023-08-02T20:44:43.278Z,95390.81
2023-08-02T20:47:09.885Z,95390.81
2023-08-02T20:49:36.484Z,95393.50
2023-08-02T20:52:03.081Z,95400.25
2023-08-02T20:54:29.667Z,95419.22
2023-08-02T20:56:56.257Z,95420.56
2023-08-02T20:59:22.856Z,95426.06
2023-08-02T21:01:49.484Z,95427.75
2023-08-02T21:04:16.114Z,95432.13
2023-08-02T21:06:44.846Z,95442.22
2023-08-02T21:09:13.079Z,95438.34
2023-08-02T21:11:39.711Z,95444.94
2023-08-02T21:14:06.331Z,95454.50
2023-08-02T21:16:33.027Z,95472.19
2023-08-02T21:18:59.647Z,95457.19
2023-08-02T21:21:26.234Z,95481.44
2023-08-02T21:23:52.847Z,95473.03
2023-08-02T21:26:19.443Z,95488.03
2023-08-02T21:28:46.025Z,95478.06
2023-08-02T21:31:12.740Z,95482.69
2023-08-02T21:33:39.487Z,95493.47
2023-08-02T21:36:06.089Z,95489.25
2023-08-02T21:38:32.730Z,95490.47
2023-08-02T21:40:59.336Z,95513.19
2023-08-02T21:43:25.944Z,95502.47
2023-08-02T21:45:52.593Z,95500.22
2023-08-02T21:48:19.209Z,95496.00
2023-08-02T21:50:45.855Z,95521.75
2023-08-02T21:53:12.458Z,95517.59
2023-08-02T21:55:39.063Z,95517.59
2023-08-02T21:58:05.663Z,95508.41
2023-08-02T22:00:32.269Z,95518.06
2023-08-02T22:02:58.882Z,95532.66
2023-08-02T22:05:25.517Z,95525.75
2023-08-02T22:07:52.106Z,95523.47
2023-08-02T22:10:18.751Z,95523.47
2023-08-02T22:12:45.361Z,95520.78
2023-08-02T22:15:11.964Z,95526.91
2023-08-02T22:17:38.615Z,95525.34
2023-08-02T22:20:05.230Z,95520.75
2023-08-02T22:22:31.863Z,95533.41
2023-08-02T22:24:58.459Z,95537.28
2023-08-02T22:27:25.065Z,95535.41
2023-08-02T22:29:58.993Z,95550.84
2023-08-02T22:32:26.423Z,95548.53
2023-08-02T22:34:53.015Z,95558.16
2023-08-02T22:37:19.607Z,95559.31
2023-08-02T22:39:46.201Z,95561.66
2023-08-02T22:42:12.808Z,95564.00
2023-08-02T22:44:39.425Z,95578.97
2023-08-02T22:47:06.038Z,95568.31
2023-08-02T22:52:02.169Z,95572.91
2023-08-02T22:54:28.784Z,95586.03
2023-08-02T22:56:55.381Z,95581.09
2023-08-02T22:59:21.968Z,95576.47
2023-08-02T23:01:48.568Z,95584.53
2023-08-02T23:04:15.298Z,95580.31
2023-08-02T23:06:42.066Z,95583.44
2023-08-02T23:09:08.700Z,95589.22
2023-08-02T23:11:35.283Z,95585.00
2023-08-02T23:14:01.889Z,95581.50
2023-08-02T23:16:28.548Z,95584.19
2023-08-02T23:18:55.158Z,95580.72
2023-08-02T23:21:21.762Z,95569.97
2023-08-02T23:23:48.355Z,95589.56
2023-08-02T23:26:14.953Z,95592.66
2023-08-02T23:28:41.548Z,95586.88
2023-08-02T23:31:08.183Z,95585.34
2023-08-02T23:33:35.014Z,95595.34
2023-08-02T23:36:01.650Z,95598.06
2023-08-02T23:38:28.271Z,95596.53
2023-08-02T23:40:54.871Z,95603.84
2023-08-02T23:43:21.469Z,95603.53
2023-08-02T23:45:48.115Z,95599.66
2023-08-02T23:48:14.763Z,95605.84
2023-08-02T23:50:41.372Z,95605.09
2023-08-02T23:53:07.968Z,95608.19
2023-08-02T23:55:34.543Z,95605.94
2023-08-02T23:58:01.173Z,95609.78
